createdAt,value
2016-12-15T07:36:13.135Z,31.2
2016-12-15T07:37:12.536Z,31.2
2016-12-15T07:38:12.804Z,31.2
2016-12-15T07:39:12.790Z,31.3
2016-12-15T07:40:11.448Z,31.2
2016-12-15T07:41:13.525Z,31.1
2016-12-15T07:42:12.922Z,30.9
2016-12-15T07:43:12.882Z,30.6
2016-12-15T07:44:14.815Z,30.4
2016-12-15T07:45:13.465Z,30.2
2016-12-15T07:46:11.546Z,29.9
2016-12-15T07:47:12.634Z,29.8
2016-12-15T07:48:13.723Z,29.2
2016-12-15T07:49:13.181Z,29.5
2016-12-15T07:50:14.715Z,29.5
2016-12-15T07:51:13.124Z,29.6
2016-12-15T07:52:12.371Z,29.6
2016-12-15T07:53:14.811Z,29.8
2016-12-15T07:54:13.599Z,29.9
2016-12-15T07:55:13.513Z,30
2016-12-15T07:56:14.235Z,30.1
2016-12-15T07:57:13.509Z,30.1
2016-12-15T07:58:12.169Z,30.3
2016-12-15T07:59:14.312Z,30.3
2016-12-15T08:00:12.223Z,30.4
2016-12-15T08:01:12.295Z,30.5
2016-12-15T08:02:14.525Z,30.6
2016-12-15T08:03:14.139Z,30.7
2016-12-15T08:04:14.049Z,30.7
2016-12-15T08:05:15.600Z,30.8
2016-12-15T08:06:12.526Z,30.9
2016-12-15T08:07:14.759Z,30.9
2016-12-15T08:08:13.515Z,30.9
2016-12-15T08:09:13.261Z,31
2016-12-15T08:10:15.239Z,31
2016-12-15T08:11:12.883Z,31.1
2016-12-15T08:12:14.550Z,31.1
2016-12-15T08:13:12.885Z,31.1
2016-12-15T08:14:15.904Z,31.2
2016-12-15T08:15:13.917Z,31.2
2016-12-15T08:16:15.296Z,31.2
2016-12-15T08:17:14.824Z,31.3
2016-12-15T08:18:17.084Z,31.4
2016-12-15T08:19:15.618Z,31.4
2016-12-15T08:20:18.594Z,31.4
2016-12-15T08:21:19.750Z,31.5
2016-12-15T08:22:18.647Z,31.5
2016-12-15T08:23:15.832Z,31.5
2016-12-15T08:24:15.756Z,31.6
2016-12-15T08:25:14.458Z,31.6
2016-12-15T08:26:21.120Z,31.6
2016-12-15T08:27:15.130Z,31.7
2016-12-15T08:28:15.855Z,31.6
2016-12-15T08:29:14.579Z,31.7
2016-12-15T08:30:13.883Z,31.7
2016-12-15T08:31:15.588Z,31.7
2016-12-15T08:32:15.639Z,31.8
2016-12-15T08:33:15.680Z,31.8
2016-12-15T08:34:15.644Z,31.8
2016-12-15T08:35:15.737Z,31.8
2016-12-15T08:36:14.207Z,31.8
2016-12-15T08:37:14.239Z,31.8
2016-12-15T08:38:15.977Z,31.8
2016-12-15T08:39:16.716Z,31.8
2016-12-15T08:40:16.063Z,31.9
2016-12-15T08:41:14.478Z,31.9
2016-12-15T08:42:14.377Z,31.9
2016-12-15T08:43:17.058Z,31.9
2016-12-15T08:44:16.979Z,31.9
2016-12-15T08:45:17.942Z,32
2016-12-15T08:46:16.920Z,32
2016-12-15T08:47:14.752Z,32
2016-12-15T08:48:16.294Z,32
2016-12-15T08:49:14.711Z,32
2016-12-15T08:50:16.368Z,32
2016-12-15T08:51:15.084Z,32
2016-12-15T08:52:17.039Z,32.1
2016-12-15T08:53:19.573Z,32.1
2016-12-15T08:54:15.965Z,32.1
2016-12-15T08:55:16.665Z,32.1
2016-12-15T08:56:16.854Z,32.2
2016-12-15T08:57:16.916Z,32.2
2016-12-15T08:58:15.278Z,32.2
2016-12-15T08:59:16.913Z,32.2
2016-12-15T09:00:15.887Z,32.2
2016-12-15T09:01:16.993Z,32.2
2016-12-15T09:02:16.944Z,32.3
2016-12-15T09:03:18.212Z,32.3
2016-12-15T09:04:15.524Z,32.3
2016-12-15T09:05:18.028Z,32.3
2016-12-15T09:06:19.839Z,32.3
2016-12-15T09:07:18.555Z,32.3
2016-12-15T09:08:16.953Z,32.4
2016-12-15T09:09:16.507Z,32.4
2016-12-15T09:10:16.863Z,32.4
2016-12-15T09:11:17.160Z,32.4
2016-12-15T09:12:18.323Z,32.4
2016-12-15T09:13:17.630Z,32.5
2016-12-15T09:14:23.139Z,32.5
2016-12-15T09:15:22.811Z,32.5
2016-12-15T09:16:28.623Z,32.5
2016-12-15T09:17:20.679Z,32.5
2016-12-15T09:18:21.853Z,32.5
2016-12-15T09:19:25.863Z,32.5
2016-12-15T09:20:25.812Z,32.5
2016-12-15T09:21:27.519Z,32.5
2016-12-15T09:22:24.200Z,32.5
2016-12-15T09:23:20.814Z,32.6
2016-12-15T09:24:21.386Z,32.6
2016-12-15T09:25:18.970Z,32.6
2016-12-15T09:26:22.124Z,32.6
2016-12-15T09:27:24.188Z,32.6
2016-12-15T09:28:18.255Z,32.6
2016-12-15T09:29:23.020Z,32.7
2016-12-15T09:30:19.332Z,32.6
2016-12-15T09:31:19.834Z,32.7
2016-12-15T09:32:19.310Z,32.7
2016-12-15T09:33:18.007Z,32.7
2016-12-15T09:34:22.586Z,32.7
2016-12-15T09:35:23.017Z,32.7
2016-12-15T09:36:18.596Z,32.7
2016-12-15T09:37:22.910Z,32.8
2016-12-15T09:38:19.111Z,32.8
2016-12-15T09:39:19.282Z,32.8
2016-12-15T09:40:20.501Z,32.8
2016-12-15T09:41:17.265Z,32.8
2016-12-15T09:42:21.193Z,32.8
2016-12-15T09:43:24.580Z,32.7
2016-12-15T09:44:22.598Z,32.8
2016-12-15T09:45:20.360Z,32.8
2016-12-15T09:46:23.318Z,32.8
2016-12-15T09:47:21.482Z,32.8
2016-12-15T09:48:23.060Z,32.8
2016-12-15T09:49:19.768Z,32.8
2016-12-15T09:50:20.566Z,32.8
2016-12-15T09:51:24.811Z,32.8
2016-12-15T09:52:21.070Z,32.8
2016-12-15T09:53:22.663Z,32.8
2016-12-15T09:54:18.677Z,32.8
2016-12-15T09:55:19.324Z,32.8
2016-12-15T09:56:19.753Z,32.7
2016-12-15T09:57:22.282Z,32.8
2016-12-15T09:58:22.903Z,32.7
2016-12-15T09:59:20.441Z,32.8
2016-12-15T10:00:20.615Z,32.8
2016-12-15T10:01:22.705Z,32.8
2016-12-15T10:02:22.990Z,32.8
2016-12-15T10:03:19.091Z,32.8
2016-12-15T10:04:19.043Z,32.8
2016-12-15T10:05:23.054Z,32.9
2016-12-15T10:06:21.941Z,32.9
2016-12-15T10:07:23.899Z,32.9
2016-12-15T10:08:21.509Z,33
2016-12-15T10:09:33.239Z,33
2016-12-15T10:10:25.881Z,33
2016-12-15T10:11:24.265Z,33
2016-12-15T10:12:23.252Z,33
2016-12-15T10:13:19.611Z,33.1
2016-12-15T10:14:24.102Z,33
2016-12-15T10:15:20.469Z,33.1
2016-12-15T10:16:24.472Z,33.1
2016-12-15T10:17:23.731Z,33.2
2016-12-15T10:18:24.530Z,33.2
2016-12-15T10:19:21.599Z,33.2
2016-12-15T10:20:22.668Z,33.2
2016-12-15T10:21:24.813Z,33.3
2016-12-15T10:22:22.626Z,33.2
2016-12-15T10:23:21.557Z,33.3
2016-12-15T10:24:21.964Z,33.3
2016-12-15T10:25:24.049Z,33.3
2016-12-15T10:26:26.529Z,33.3
2016-12-15T10:27:24.907Z,33.2
2016-12-15T10:28:24.271Z,33.2
2016-12-15T10:29:26.226Z,33.3
2016-12-15T10:30:20.002Z,33.3
2016-12-15T10:31:23.700Z,33.3
2016-12-15T10:32:26.622Z,33.3
2016-12-15T10:33:23.515Z,33.4
2016-12-15T10:34:23.684Z,33.4
2016-12-15T10:35:23.097Z,33.5
2016-12-15T10:36:24.526Z,33.5
2016-12-15T10:37:20.908Z,33.6
2016-12-15T10:38:24.561Z,33.6
2016-12-15T10:39:23.913Z,33.6
2016-12-15T10:40:23.404Z,33.7
2016-12-15T10:41:23.388Z,33.7
2016-12-15T10:42:24.911Z,33.7
2016-12-15T10:43:24.189Z,33.8
2016-12-15T10:44:24.204Z,33.8
2016-12-15T10:45:27.638Z,33.8
2016-12-15T10:46:23.273Z,33.9
2016-12-15T10:47:31.017Z,33.9
2016-12-15T10:48:25.333Z,33.9
2016-12-15T10:49:34.240Z,34
2016-12-15T10:50:27.953Z,34
2016-12-15T10:51:29.604Z,34
2016-12-15T10:52:32.423Z,34.1
2016-12-15T10:53:33.458Z,34.1
2016-12-15T10:54:29.379Z,34.1
2016-12-15T10:55:26.182Z,34.1
2016-12-15T10:56:26.219Z,34.1
2016-12-15T10:57:27.531Z,34.1
2016-12-15T10:58:27.177Z,34.1
2016-12-15T10:59:24.786Z,34
2016-12-15T11:00:22.680Z,34
2016-12-15T11:01:24.284Z,34
2016-12-15T11:02:23.895Z,34
2016-12-15T11:03:24.542Z,34.1
2016-12-15T11:04:25.091Z,34.1
2016-12-15T11:05:25.238Z,34
2016-12-15T11:06:25.968Z,34
2016-12-15T11:07:25.105Z,34
2016-12-15T11:08:22.112Z,34
2016-12-15T11:09:23.280Z,34
2016-12-15T11:10:25.514Z,34
2016-12-15T11:11:25.041Z,34
2016-12-15T11:12:25.085Z,34
2016-12-15T11:13:27.415Z,34
2016-12-15T11:14:22.756Z,34
2016-12-15T11:15:24.286Z,34.1
2016-12-15T11:16:23.635Z,34.1
2016-12-15T11:17:24.624Z,34
2016-12-15T11:18:23.947Z,34.1
2016-12-15T11:19:39.167Z,34.1
2016-12-15T11:20:30.308Z,34.1
2016-12-15T11:21:34.850Z,34.1
2016-12-15T11:22:28.438Z,34.1
2016-12-15T11:23:27.511Z,34.1
2016-12-15T11:24:38.988Z,34.1
2016-12-15T11:25:25.539Z,34.2
2016-12-15T11:26:24.440Z,34.2
2016-12-15T11:27:26.571Z,34.2
2016-12-15T11:28:23.034Z,34.2
2016-12-15T11:29:25.336Z,34.2
2016-12-15T11:30:25.182Z,34.2
2016-12-15T11:31:23.686Z,34.2
2016-12-15T11:32:25.463Z,34.2
2016-12-15T11:33:25.984Z,34.3
2016-12-15T11:34:24.266Z,34.3
2016-12-15T11:35:26.159Z,34.3
2016-12-15T11:36:24.959Z,34.3
2016-12-15T11:37:24.178Z,34.3
2016-12-15T11:38:26.865Z,34.3
2016-12-15T11:39:25.391Z,34.4
2016-12-15T11:40:53.769Z,34.4
2016-12-15T11:41:52.672Z,34.4
2016-12-15T11:42:26.878Z,34.4
2016-12-15T11:43:26.960Z,34.4
2016-12-15T11:44:25.774Z,34.5
2016-12-15T11:45:26.880Z,34.4
2016-12-15T11:46:27.748Z,34.4
2016-12-15T11:47:25.857Z,34.4
2016-12-15T11:48:25.632Z,34.3
2016-12-15T11:49:26.949Z,34.3
2016-12-15T11:50:25.688Z,34.3
2016-12-15T11:51:27.175Z,34.2
2016-12-15T11:52:30.651Z,34.2
2016-12-15T11:53:26.808Z,34.1
2016-12-15T11:54:30.071Z,34.1
2016-12-15T11:55:29.827Z,34.1
2016-12-15T11:56:34.819Z,34
2016-12-15T11:57:35.542Z,34
2016-12-15T11:58:28.531Z,34
2016-12-15T11:59:29.527Z,33.9
2016-12-15T12:00:28.771Z,33.9
2016-12-15T12:01:28.485Z,33.9
2016-12-15T12:02:29.216Z,34
2016-12-15T12:03:26.619Z,34
2016-12-15T12:04:26.302Z,34
2016-12-15T12:05:29.625Z,34
2016-12-15T12:06:31.551Z,34
2016-12-15T12:07:28.450Z,34
2016-12-15T12:08:32.769Z,34
2016-12-15T12:09:26.670Z,34.1
2016-12-15T12:10:29.207Z,34.1
2016-12-15T12:11:25.229Z,34.1
2016-12-15T12:12:28.090Z,34.2
2016-12-15T12:13:28.193Z,34.2
2016-12-15T12:14:27.636Z,34.2
2016-12-15T12:15:28.856Z,34.3
2016-12-15T12:16:25.921Z,34.3
2016-12-15T12:17:25.876Z,34.3
2016-12-15T12:18:28.069Z,34.3
2016-12-15T12:19:26.036Z,34.3
2016-12-15T12:20:25.506Z,34.3
2016-12-15T12:21:26.295Z,34.3
2016-12-15T12:22:29.758Z,34.4
2016-12-15T12:23:27.293Z,34.4
2016-12-15T12:24:28.014Z,34.3
2016-12-15T12:25:26.329Z,34.3
2016-12-15T12:26:25.810Z,34.4
2016-12-15T12:27:25.838Z,34.4
2016-12-15T12:28:29.013Z,34.4
2016-12-15T12:29:26.615Z,34.4
2016-12-15T12:30:28.545Z,34.4
2016-12-15T12:31:28.321Z,34.3
2016-12-15T12:32:27.479Z,34.3
2016-12-15T12:33:27.122Z,34.3
2016-12-15T12:34:29.490Z,34.3
2016-12-15T12:35:26.050Z,34.3
2016-12-15T12:36:28.289Z,34.3
2016-12-15T12:37:27.796Z,34.3
2016-12-15T12:38:31.740Z,34.3
2016-12-15T12:39:27.910Z,34.3
2016-12-15T12:40:26.402Z,34.3
2016-12-15T12:41:28.490Z,34.3
2016-12-15T12:42:27.973Z,34.2
2016-12-15T12:43:28.043Z,34.3
2016-12-15T12:44:28.043Z,34.3
2016-12-15T12:45:26.732Z,34.3
2016-12-15T12:46:28.049Z,34.3
2016-12-15T12:47:29.036Z,34.3
2016-12-15T12:48:28.128Z,34.2
2016-12-15T12:49:29.484Z,34.2
2016-12-15T12:50:28.592Z,34.2
2016-12-15T12:51:28.521Z,34.2
2016-12-15T12:52:29.377Z,34.1
2016-12-15T12:53:31.771Z,34.1
2016-12-15T12:54:29.494Z,34.1
2016-12-15T12:55:28.227Z,34.1
2016-12-15T12:56:27.024Z,34.1
2016-12-15T12:57:27.910Z,34.2
2016-12-15T12:58:31.666Z,34.1
2016-12-15T12:59:29.994Z,34.1
2016-12-15T13:00:28.499Z,34.1
2016-12-15T13:01:29.671Z,34
2016-12-15T13:02:29.176Z,33.9
2016-12-15T13:03:29.474Z,33.8
2016-12-15T13:04:42.059Z,33.6
2016-12-15T13:05:30.312Z,33.5
2016-12-15T13:06:29.566Z,33.3
2016-12-15T13:07:35.194Z,33.1
2016-12-15T13:08:28.347Z,32.9
2016-12-15T13:09:32.358Z,32.8
2016-12-15T13:10:29.948Z,32.7
2016-12-15T13:11:28.800Z,32.5
2016-12-15T13:12:30.696Z,32.4
2016-12-15T13:13:27.811Z,32.3
2016-12-15T13:14:30.234Z,32.3
2016-12-15T13:15:31.063Z,32.2
2016-12-15T13:16:32.123Z,32.1
2016-12-15T13:17:28.841Z,32.1
2016-12-15T13:18:31.008Z,32
2016-12-15T13:19:32.774Z,31.9
2016-12-15T13:20:30.779Z,31.9
2016-12-15T13:21:29.483Z,31.8
2016-12-15T13:22:34.822Z,31.7
2016-12-15T13:23:31.403Z,31.7
2016-12-15T13:24:28.959Z,31.7
2016-12-15T13:25:31.285Z,31.6
2016-12-15T13:26:31.171Z,31.6
2016-12-15T13:27:30.199Z,31.5
2016-12-15T13:28:31.730Z,31.5
2016-12-15T13:29:30.276Z,31.5
2016-12-15T13:30:34.644Z,31.5
2016-12-15T13:31:31.369Z,31.5
2016-12-15T13:32:29.030Z,31.4
2016-12-15T13:33:28.822Z,31.4
2016-12-15T13:34:30.577Z,31.3
2016-12-15T13:35:33.242Z,31.2
2016-12-15T13:36:32.820Z,31.2
2016-12-15T13:37:31.946Z,31.1
2016-12-15T13:38:32.639Z,31.1
2016-12-15T13:39:31.263Z,31
2016-12-15T13:40:38.422Z,30.9
2016-12-15T13:41:35.638Z,30.9
2016-12-15T13:42:29.871Z,30.8
2016-12-15T13:43:31.685Z,30.8
2016-12-15T13:44:30.548Z,30.7
2016-12-15T13:45:30.771Z,30.7
2016-12-15T13:46:32.304Z,30.7
2016-12-15T13:47:32.375Z,30.6
2016-12-15T13:48:33.580Z,30.6
2016-12-15T13:49:31.552Z,30.5
2016-12-15T13:50:31.960Z,30.5
2016-12-15T13:51:33.771Z,30.5
2016-12-15T13:52:31.870Z,30.4
2016-12-15T13:53:32.641Z,30.4
2016-12-15T13:54:33.155Z,30.5
2016-12-15T13:55:29.772Z,30.5
2016-12-15T13:56:32.166Z,30.7
2016-12-15T13:57:33.409Z,30.8
2016-12-15T13:58:32.502Z,30.9
2016-12-15T13:59:30.013Z,31
2016-12-15T14:00:32.794Z,31.2
2016-12-15T14:01:32.505Z,31.3
2016-12-15T14:02:33.214Z,31.4
2016-12-15T14:03:32.462Z,31.5
2016-12-15T14:04:32.964Z,31.6
2016-12-15T14:05:31.840Z,31.7
2016-12-15T14:06:35.118Z,31.8
2016-12-15T14:07:35.878Z,31.8
2016-12-15T14:08:34.644Z,31.9
2016-12-15T14:09:31.920Z,32
2016-12-15T14:10:33.280Z,32
2016-12-15T14:11:33.449Z,32.1
2016-12-15T14:12:32.728Z,32.1
2016-12-15T14:13:32.335Z,32.2
2016-12-15T14:14:31.494Z,32.2
2016-12-15T14:15:36.295Z,32.3
2016-12-15T14:16:33.726Z,32.3
2016-12-15T14:17:33.734Z,32.4
2016-12-15T14:18:34.483Z,32.4
2016-12-15T14:19:34.111Z,32.4
2016-12-15T14:20:34.939Z,32.5
2016-12-15T14:21:37.342Z,32.5
2016-12-15T14:22:34.207Z,32.5
2016-12-15T14:23:33.591Z,32.6
2016-12-15T14:24:32.867Z,32.6
2016-12-15T14:25:33.599Z,32.6
2016-12-15T14:26:32.991Z,32.6
2016-12-15T14:27:31.406Z,32.7
2016-12-15T14:28:32.715Z,32.7
2016-12-15T14:29:33.714Z,32.7
2016-12-15T14:30:33.224Z,32.7
2016-12-15T14:31:33.252Z,32.7
2016-12-15T14:32:32.519Z,32.8
2016-12-15T14:33:33.393Z,32.8
2016-12-15T14:34:33.638Z,32.8
2016-12-15T14:35:33.155Z,32.8
2016-12-15T14:36:33.495Z,32.8
2016-12-15T14:37:34.427Z,32.8
2016-12-15T14:38:33.536Z,32.9
2016-12-15T14:39:34.339Z,32.8
2016-12-15T14:40:33.314Z,32.9
2016-12-15T14:41:34.454Z,32.9
2016-12-15T14:42:35.169Z,32.9
2016-12-15T14:43:34.187Z,32.9
2016-12-15T14:44:34.382Z,32.9
2016-12-15T14:45:33.007Z,33
2016-12-15T14:46:33.128Z,32.9
2016-12-15T14:47:34.439Z,32.9
2016-12-15T14:48:33.201Z,32.9
2016-12-15T14:49:33.205Z,32.9
2016-12-15T14:50:34.356Z,32.9
2016-12-15T14:51:34.116Z,32.9
2016-12-15T14:52:34.171Z,32.9
2016-12-15T14:53:35.085Z,32.9
2016-12-15T14:54:36.958Z,32.9
2016-12-15T14:55:34.363Z,32.9
2016-12-15T14:56:34.308Z,32.9
2016-12-15T14:57:33.693Z,32.9
2016-12-15T14:58:35.160Z,32.9
2016-12-15T14:59:34.555Z,32.9
2016-12-15T15:00:34.525Z,32.9
2016-12-15T15:01:34.732Z,32.9
2016-12-15T15:02:33.106Z,32.9
2016-12-15T15:03:33.003Z,32.9
2016-12-15T15:04:36.514Z,32.9
2016-12-15T15:05:34.729Z,32.9
2016-12-15T15:06:35.359Z,32.9
2016-12-15T15:07:33.833Z,32.9
2016-12-15T15:08:35.891Z,32.8
2016-12-15T15:09:35.648Z,32.8
2016-12-15T15:10:36.874Z,32.8
2016-12-15T15:11:35.676Z,32.8
2016-12-15T15:12:34.866Z,32.8
2016-12-15T15:13:34.337Z,32.8
2016-12-15T15:14:35.673Z,32.8
2016-12-15T15:15:34.125Z,32.8
2016-12-15T15:16:33.724Z,32.8
2016-12-15T15:17:35.390Z,32.8
2016-12-15T15:18:34.519Z,32.8
2016-12-15T15:19:34.885Z,32.8
2016-12-15T15:20:33.912Z,32.7
2016-12-15T15:21:34.538Z,32.8
2016-12-15T15:22:33.898Z,32.7
2016-12-15T15:23:34.612Z,32.7
2016-12-15T15:24:35.057Z,32.7
2016-12-15T15:25:38.661Z,32.7
2016-12-15T15:26:37.659Z,32.7
2016-12-15T15:27:34.204Z,32.7
2016-12-15T15:28:35.830Z,32.7
2016-12-15T15:29:35.918Z,32.7
2016-12-15T15:30:37.276Z,32.7
2016-12-15T15:31:34.491Z,32.7
2016-12-15T15:32:36.555Z,32.6
2016-12-15T15:33:37.992Z,32.7
2016-12-15T15:34:35.496Z,32.7
2016-12-15T15:35:35.256Z,32.6
2016-12-15T15:36:36.331Z,32.6
2016-12-15T15:37:36.230Z,32.6
2016-12-15T15:38:35.469Z,32.6
2016-12-15T15:39:34.854Z,32.6
2016-12-15T15:40:37.208Z,32.6
2016-12-15T15:41:36.235Z,32.6
2016-12-15T15:42:34.954Z,32.6
2016-12-15T15:43:35.072Z,32.6
2016-12-15T15:44:36.709Z,32.6
2016-12-15T15:45:36.538Z,32.6
2016-12-15T15:46:37.217Z,32.6
2016-12-15T15:47:38.240Z,32.6
2016-12-15T15:48:36.753Z,32.6
2016-12-15T15:49:35.355Z,32.5
2016-12-15T15:50:37.599Z,32.5
2016-12-15T15:51:36.911Z,32.5
2016-12-15T15:52:37.599Z,32.5
2016-12-15T15:53:37.011Z,32.5
2016-12-15T15:54:35.513Z,32.5
2016-12-15T15:55:37.671Z,32.5
2016-12-15T15:56:37.482Z,32.5
2016-12-15T15:57:35.753Z,32.4
2016-12-15T15:58:38.298Z,32.5
2016-12-15T15:59:35.741Z,32.5
2016-12-15T16:00:37.377Z,32.5
2016-12-15T16:01:36.053Z,32.5
2016-12-15T16:02:37.533Z,32.5
2016-12-15T16:03:37.518Z,32.5
2016-12-15T16:04:37.609Z,32.5
2016-12-15T16:05:36.036Z,32.4
2016-12-15T16:06:36.311Z,32.4
2016-12-15T16:07:38.523Z,32.4
2016-12-15T16:08:37.752Z,32.4
2016-12-15T16:09:37.838Z,32.4
2016-12-15T16:10:38.000Z,32.4
2016-12-15T16:11:37.901Z,32.4
2016-12-15T16:12:36.527Z,32.4
2016-12-15T16:13:38.724Z,32.4
2016-12-15T16:14:36.667Z,32.4
2016-12-15T16:15:38.787Z,32.4
2016-12-15T16:16:37.301Z,32.4
2016-12-15T16:17:36.862Z,32.4
2016-12-15T16:18:39.141Z,32.3
2016-12-15T16:19:37.799Z,32.4
2016-12-15T16:20:37.451Z,32.4
2016-12-15T16:21:36.897Z,32.4
2016-12-15T16:22:38.460Z,32.3
2016-12-15T16:23:37.649Z,32.3
2016-12-15T16:24:38.637Z,32.3
2016-12-15T16:25:39.414Z,32.3
2016-12-15T16:26:38.698Z,32.3
2016-12-15T16:27:38.771Z,32.3
2016-12-15T16:28:38.936Z,32.3
2016-12-15T16:29:38.939Z,32.3
2016-12-15T16:30:37.970Z,32.3
2016-12-15T16:31:37.388Z,32.2
2016-12-15T16:32:39.098Z,32.3
2016-12-15T16:33:37.628Z,32.3
2016-12-15T16:34:38.161Z,32.3
2016-12-15T16:35:39.084Z,32.3
2016-12-15T16:36:39.224Z,32.3
2016-12-15T16:37:38.870Z,32.2
2016-12-15T16:38:37.803Z,32.3
2016-12-15T16:39:40.333Z,32.2
2016-12-15T16:40:39.265Z,32.2
2016-12-15T16:41:37.739Z,32.2
2016-12-15T16:42:39.298Z,32.2
2016-12-15T16:43:37.887Z,32.2
2016-12-15T16:44:40.637Z,32.2
2016-12-15T16:45:39.547Z,32.2
2016-12-15T16:46:38.561Z,32.2
2016-12-15T16:47:39.591Z,32.2
2016-12-15T16:48:39.504Z,32.2
2016-12-15T16:49:39.746Z,32.2
2016-12-15T16:50:39.871Z,32.2
2016-12-15T16:51:40.290Z,32.2
2016-12-15T16:52:39.866Z,32.2
2016-12-15T16:53:38.294Z,32.1
2016-12-15T16:54:39.754Z,32.2
2016-12-15T16:55:39.817Z,32.2
2016-12-15T16:56:38.249Z,32.2
2016-12-15T16:57:38.435Z,32.2
2016-12-15T16:58:38.544Z,32.2
2016-12-15T16:59:40.122Z,32.1
2016-12-15T17:00:38.398Z,32.1
2016-12-15T17:01:40.187Z,32.1
2016-12-15T17:02:38.641Z,32.1
2016-12-15T17:03:40.848Z,32.1
2016-12-15T17:04:38.819Z,32.1
2016-12-15T17:05:38.835Z,32.1
2016-12-15T17:06:39.189Z,32.1
2016-12-15T17:07:38.951Z,32.1
2016-12-15T17:08:38.841Z,32.1
2016-12-15T17:09:40.641Z,32.1
2016-12-15T17:10:39.046Z,32.1
2016-12-15T17:11:39.052Z,32.1
2016-12-15T17:12:39.144Z,32.1
2016-12-15T17:13:42.220Z,32.1
2016-12-15T17:14:39.729Z,32.1
2016-12-15T17:15:40.131Z,32.1
2016-12-15T17:16:42.113Z,32.1
2016-12-15T17:17:40.078Z,32
2016-12-15T17:18:40.281Z,32.1
2016-12-15T17:19:41.980Z,32.1
2016-12-15T17:20:41.209Z,32.1
2016-12-15T17:21:42.678Z,32.1
2016-12-15T17:22:40.320Z,32.1
2016-12-15T17:23:40.570Z,32
2016-12-15T17:24:40.590Z,32.1
2016-12-15T17:25:41.556Z,32.1
2016-12-15T17:26:41.512Z,32.1
2016-12-15T17:27:42.168Z,32
2016-12-15T17:28:41.659Z,32
2016-12-15T17:29:41.698Z,32
2016-12-15T17:30:40.367Z,32
2016-12-15T17:31:40.985Z,32
2016-12-15T17:32:42.580Z,32
2016-12-15T17:33:40.834Z,32
2016-12-15T17:34:41.910Z,32
2016-12-15T17:35:42.400Z,32
2016-12-15T17:36:41.008Z,32
2016-12-15T17:37:40.437Z,32
2016-12-15T17:38:40.419Z,32
2016-12-15T17:39:41.249Z,32
2016-12-15T17:40:41.059Z,32
2016-12-15T17:41:42.270Z,32
2016-12-15T17:42:40.796Z,32
2016-12-15T17:43:40.760Z,32
2016-12-15T17:44:40.890Z,32
2016-12-15T17:45:43.192Z,32
2016-12-15T17:46:42.432Z,32
2016-12-15T17:47:42.463Z,32
2016-12-15T17:48:41.116Z,32
2016-12-15T17:49:42.512Z,32
2016-12-15T17:50:41.106Z,32
2016-12-15T17:51:42.647Z,32
2016-12-15T17:52:42.762Z,32
2016-12-15T17:53:42.751Z,32
2016-12-15T17:54:42.784Z,32
2016-12-15T17:55:42.923Z,31.9
2016-12-15T17:56:41.418Z,32
2016-12-15T17:57:42.894Z,32
2016-12-15T17:58:43.035Z,32
2016-12-15T17:59:41.483Z,32
2016-12-15T18:00:43.014Z,32
2016-12-15T18:01:42.316Z,32
2016-12-15T18:02:43.233Z,31.9
2016-12-15T18:03:41.692Z,31.9
2016-12-15T18:04:41.782Z,31.9
2016-12-15T18:05:43.495Z,31.9
2016-12-15T18:06:41.916Z,31.9
2016-12-15T18:07:44.072Z,31.9
2016-12-15T18:08:43.567Z,31.9
2016-12-15T18:09:43.576Z,31.9
2016-12-15T18:10:43.500Z,31.9
2016-12-15T18:11:42.092Z,31.9
2016-12-15T18:12:43.735Z,31.9
2016-12-15T18:13:42.167Z,31.9
2016-12-15T18:14:43.771Z,31.9
2016-12-15T18:15:43.743Z,31.9
2016-12-15T18:16:42.111Z,31.9
2016-12-15T18:17:42.203Z,31.9
2016-12-15T18:18:42.207Z,31.9
2016-12-15T18:19:43.879Z,31.9
2016-12-15T18:20:43.945Z,31.9
2016-12-15T18:21:43.927Z,31.9
2016-12-15T18:22:43.951Z,31.9
2016-12-15T18:23:42.474Z,31.9
2016-12-15T18:24:44.077Z,31.9
2016-12-15T18:25:42.680Z,31.8
2016-12-15T18:26:42.713Z,31.9
2016-12-15T18:27:42.763Z,31.9
2016-12-15T18:28:44.365Z,31.9
2016-12-15T18:29:42.817Z,31.9
2016-12-15T18:30:42.770Z,31.8
2016-12-15T18:31:44.400Z,31.9
2016-12-15T18:32:42.787Z,31.9
2016-12-15T18:33:42.951Z,31.9
2016-12-15T18:34:44.961Z,31.9
2016-12-15T18:35:42.849Z,31.9
2016-12-15T18:36:42.884Z,31.9
2016-12-15T18:37:44.691Z,31.9
2016-12-15T18:38:44.624Z,31.9
2016-12-15T18:39:43.040Z,31.9
2016-12-15T18:40:43.132Z,31.9
2016-12-15T18:41:44.855Z,31.9
2016-12-15T18:42:44.895Z,31.9
2016-12-15T18:43:44.931Z,31.8
2016-12-15T18:44:44.845Z,31.9
2016-12-15T18:45:44.846Z,31.8
2016-12-15T18:46:44.174Z,31.8
2016-12-15T18:47:45.075Z,31.8
2016-12-15T18:48:45.113Z,31.8
2016-12-15T18:49:45.199Z,31.8
2016-12-15T18:50:45.784Z,31.8
2016-12-15T18:51:45.021Z,31.8
2016-12-15T18:52:45.266Z,31.8
2016-12-15T18:53:45.178Z,31.8
2016-12-15T18:54:43.764Z,31.8
2016-12-15T18:55:43.620Z,31.8
2016-12-15T18:56:45.398Z,31.8
2016-12-15T18:57:43.949Z,31.8
2016-12-15T18:58:43.900Z,31.8
2016-12-15T18:59:43.851Z,31.8
2016-12-15T19:00:46.435Z,31.8
2016-12-15T19:01:45.504Z,31.8
2016-12-15T19:02:45.597Z,31.8
2016-12-15T19:03:45.549Z,31.8
2016-12-15T19:04:43.958Z,31.8
2016-12-15T19:05:44.055Z,31.8
2016-12-15T19:06:45.727Z,31.8
2016-12-15T19:07:45.670Z,31.8
2016-12-15T19:08:44.072Z,31.8
2016-12-15T19:09:45.749Z,31.8
2016-12-15T19:10:44.997Z,31.8
2016-12-15T19:11:45.794Z,31.8
2016-12-15T19:12:45.898Z,31.8
2016-12-15T19:13:45.991Z,31.8
2016-12-15T19:14:44.617Z,31.8
2016-12-15T19:15:44.669Z,31.8
2016-12-15T19:16:44.625Z,31.8
2016-12-15T19:17:46.217Z,31.8
2016-12-15T19:18:44.825Z,31.8
2016-12-15T19:19:44.750Z,31.8
2016-12-15T19:20:44.906Z,31.8
2016-12-15T19:21:46.617Z,31.8
2016-12-15T19:22:46.563Z,31.8
2016-12-15T19:23:44.965Z,31.8
2016-12-15T19:24:46.776Z,31.8
2016-12-15T19:25:46.659Z,31.8
2016-12-15T19:26:45.144Z,31.8
2016-12-15T19:27:46.762Z,31.8
2016-12-15T19:28:46.894Z,31.8
2016-12-15T19:29:45.499Z,31.8
2016-12-15T19:30:45.564Z,31.8
2016-12-15T19:31:47.155Z,31.8
2016-12-15T19:32:45.628Z,31.8
2016-12-15T19:33:45.516Z,31.8
2016-12-15T19:34:47.280Z,31.8
2016-12-15T19:35:45.610Z,31.8
2016-12-15T19:36:45.827Z,31.7
2016-12-15T19:37:45.754Z,31.7
2016-12-15T19:38:45.965Z,31.7
2016-12-15T19:39:47.440Z,31.7
2016-12-15T19:40:47.660Z,31.7
2016-12-15T19:41:47.620Z,31.7
2016-12-15T19:42:47.760Z,31.7
2016-12-15T19:43:46.238Z,31.7
2016-12-15T19:44:46.323Z,31.7
2016-12-15T19:45:47.838Z,31.7
2016-12-15T19:46:48.008Z,31.7
2016-12-15T19:47:48.567Z,31.7
2016-12-15T19:48:48.015Z,31.7
2016-12-15T19:49:46.638Z,31.7
2016-12-15T19:50:47.933Z,31.7
2016-12-15T19:51:46.517Z,31.7
2016-12-15T19:52:47.149Z,31.7
2016-12-15T19:53:48.266Z,31.7
2016-12-15T19:54:48.204Z,31.7
2016-12-15T19:55:48.283Z,31.7
2016-12-15T19:56:46.657Z,31.7
2016-12-15T19:57:46.817Z,31.7
2016-12-15T19:58:46.758Z,31.7
2016-12-15T19:59:46.872Z,31.7
2016-12-15T20:00:48.492Z,31.7
2016-12-15T20:01:48.532Z,31.7
2016-12-15T20:02:48.494Z,31.7
2016-12-15T20:03:47.541Z,31.7
2016-12-15T20:04:47.190Z,31.7
2016-12-15T20:05:48.556Z,31.7
2016-12-15T20:06:48.732Z,31.7
2016-12-15T20:07:48.791Z,31.7
2016-12-15T20:08:48.790Z,31.7
2016-12-15T20:09:47.815Z,31.7
2016-12-15T20:10:47.443Z,31.7
2016-12-15T20:11:49.041Z,31.6
2016-12-15T20:12:47.419Z,31.6
2016-12-15T20:13:49.142Z,31.6
2016-12-15T20:14:47.532Z,31.6
2016-12-15T20:15:49.175Z,31.6
2016-12-15T20:16:47.713Z,31.6
2016-12-15T20:17:49.331Z,31.6
2016-12-15T20:18:47.783Z,31.6
2016-12-15T20:19:48.007Z,31.6
2016-12-15T20:20:47.873Z,31.6
2016-12-15T20:21:47.926Z,31.6
2016-12-15T20:22:48.149Z,31.6
2016-12-15T20:23:48.167Z,31.6
2016-12-15T20:24:49.652Z,31.6
2016-12-15T20:25:48.205Z,31.6
2016-12-15T20:26:49.768Z,31.6
2016-12-15T20:27:49.757Z,31.6
2016-12-15T20:28:49.766Z,31.6
2016-12-15T20:29:48.392Z,31.6
2016-12-15T20:30:50.046Z,31.6
2016-12-15T20:31:49.939Z,31.6
2016-12-15T20:32:50.016Z,31.6
2016-12-15T20:33:50.052Z,31.6
2016-12-15T20:34:48.677Z,31.6
2016-12-15T20:35:50.252Z,31.6
2016-12-15T20:36:50.156Z,31.6
2016-12-15T20:37:48.674Z,31.6
2016-12-15T20:38:48.909Z,31.6
2016-12-15T20:39:50.440Z,31.6
2016-12-15T20:40:48.849Z,31.6
2016-12-15T20:41:48.875Z,31.6
2016-12-15T20:42:50.549Z,31.6
2016-12-15T20:43:49.033Z,31.6
2016-12-15T20:44:50.807Z,31.6
2016-12-15T20:45:49.092Z,31.6
2016-12-15T20:46:50.853Z,31.6
2016-12-15T20:47:49.330Z,31.6
2016-12-15T20:48:49.988Z,31.5
2016-12-15T20:49:50.951Z,31.6
2016-12-15T20:50:49.475Z,31.6
2016-12-15T20:51:49.622Z,31.6
2016-12-15T20:52:50.941Z,31.6
2016-12-15T20:53:49.462Z,31.5
2016-12-15T20:54:49.580Z,31.5
2016-12-15T20:55:51.287Z,31.5
2016-12-15T20:56:51.208Z,31.5
2016-12-15T20:57:51.393Z,31.5
2016-12-15T20:58:49.732Z,31.5
2016-12-15T20:59:51.370Z,31.5
2016-12-15T21:00:49.786Z,31.5